Time;durP1;ratioP1;P1;durP2;ratioP2;P2;SDS_P1;SDS_P2;PMS_P1;PMS_P2;Temp;Humidity;BMP_temperature;BMP_pressure;BME280_temperature;BME280_humidity;BME280_pressure;Samples;Min_cycle;Max_cycle;Signal;HPM_P1;HPM_P2
2023/03/25 00:00:15;;;;;;;10.98;3.83;;;6.80;99.90;;;;;;4846676;29;20055;-74
2023/03/25 00:02:48;;;;;;;16.33;4.93;;;6.80;99.90;;;;;;4847277;29;20041;-67
2023/03/25 00:05:17;;;;;;;14.68;4.05;;;6.70;99.90;;;;;;4847030;29;20045;-73
2023/03/25 00:07:47;;;;;;;12.80;4.50;;;6.70;99.90;;;;;;4847674;29;20041;-65
2023/03/25 00:10:14;;;;;;;12.00;3.67;;;6.70;99.90;;;;;;4845734;29;20080;-65
2023/03/25 00:12:41;;;;;;;14.40;3.60;;;6.70;99.90;;;;;;4847775;29;20643;-72
2023/03/25 00:15:10;;;;;;;12.82;4.85;;;6.70;99.90;;;;;;4844858;29;20048;-72
2023/03/25 00:17:37;;;;;;;7.40;2.60;;;6.70;99.90;;;;;;4845635;29;20575;-68
2023/03/25 00:20:08;;;;;;;15.55;5.07;;;6.70;99.90;;;;;;4845153;29;20072;-65
2023/03/25 00:22:39;;;;;;;11.65;3.70;;;6.70;99.90;;;;;;4845754;29;20054;-66
2023/03/25 00:25:09;;;;;;;11.15;3.25;;;6.70;99.90;;;;;;4844697;29;20554;-72
2023/03/25 00:27:37;;;;;;;11.07;3.72;;;6.70;99.90;;;;;;4841088;29;20095;-66
2023/03/25 00:30:04;;;;;;;12.98;3.28;;;6.70;99.90;;;;;;4842394;29;20917;-68
2023/03/25 00:32:31;;;;;;;12.95;2.58;;;6.70;99.90;;;;;;4853883;29;20062;-69
2023/03/25 00:34:58;;;;;;;14.98;3.72;;;6.70;99.90;;;;;;4843705;29;20484;-72
2023/03/25 00:37:26;;;;;;;9.57;3.95;;;6.70;99.90;;;;;;4845977;29;20049;-68
2023/03/25 00:39:53;;;;;;;15.15;2.70;;;6.70;99.90;;;;;;4848765;29;20408;-68
2023/03/25 00:42:24;;;;;;;8.18;2.67;;;6.60;99.90;;;;;;4845953;29;20052;-73
2023/03/25 00:44:52;;;;;;;14.10;3.40;;;6.50;99.90;;;;;;4841281;29;20042;-64
2023/03/25 00:47:21;;;;;;;9.27;3.13;;;6.50;99.90;;;;;;4847971;29;20053;-71
2023/03/25 00:49:48;;;;;;;12.15;2.70;;;6.50;99.90;;;;;;4842980;29;20065;-66
2023/03/25 00:52:17;;;;;;;9.55;3.42;;;6.50;99.90;;;;;;4846402;29;20064;-63
2023/03/25 00:54:44;;;;;;;10.30;3.53;;;6.50;99.90;;;;;;4860017;29;20306;-69
2023/03/25 00:57:11;;;;;;;11.13;3.85;;;6.50;99.90;;;;;;4846397;29;20136;-70
2023/03/25 00:59:38;;;;;;;9.25;2.85;;;6.50;99.90;;;;;;4850609;29;20046;-66
2023/03/25 01:02:05;;;;;;;11.45;3.63;;;6.50;99.90;;;;;;4850768;29;20042;-65
2023/03/25 01:04:38;;;;;;;8.88;4.13;;;6.50;99.90;;;;;;4849804;29;20077;-67
2023/03/25 01:07:08;;;;;;;8.50;3.22;;;6.50;99.90;;;;;;4843158;29;20050;-69
2023/03/25 01:09:37;;;;;;;13.60;3.60;;;6.60;99.90;;;;;;4848296;29;20045;-63
2023/03/25 01:12:04;;;;;;;14.90;2.97;;;6.60;99.90;;;;;;4850666;29;20041;-66
2023/03/25 01:14:31;;;;;;;13.82;3.40;;;6.60;99.90;;;;;;4847563;29;20046;-67
2023/03/25 01:16:59;;;;;;;6.43;2.72;;;6.60;99.90;;;;;;4849327;29;20053;-69
2023/03/25 01:19:28;;;;;;;8.60;3.00;;;6.60;99.90;;;;;;4849332;29;20148;-65
2023/03/25 01:21:56;;;;;;;8.45;3.33;;;6.60;99.90;;;;;;4851647;29;20144;-67
2023/03/25 01:24:22;;;;;;;23.45;4.05;;;6.60;99.90;;;;;;4848042;29;20081;-68
2023/03/25 01:26:49;;;;;;;9.60;2.10;;;6.60;99.90;;;;;;4844641;29;20677;-69
2023/03/25 01:29:19;;;;;;;17.55;2.78;;;6.50;99.90;;;;;;4841632;29;20043;-69
2023/03/25 01:31:46;;;;;;;12.40;2.75;;;6.60;99.90;;;;;;4847870;29;20065;-64
2023/03/25 01:34:14;;;;;;;21.35;3.85;;;6.60;99.90;;;;;;4846935;29;20061;-63
2023/03/25 01:36:45;;;;;;;10.50;3.53;;;6.60;99.90;;;;;;4846957;29;20081;-69
2023/03/25 01:39:15;;;;;;;12.07;3.40;;;6.60;99.90;;;;;;4850098;29;20049;-71
2023/03/25 01:41:44;;;;;;;7.18;3.28;;;6.60;99.90;;;;;;4849958;29;20083;-65
2023/03/25 01:44:20;;;;;;;13.80;3.55;;;6.50;99.90;;;;;;4837463;29;20547;-64
2023/03/25 01:46:51;;;;;;;6.57;3.03;;;6.50;99.90;;;;;;4843257;29;20380;-70
2023/03/25 01:49:32;;;;;;;16.15;4.18;;;6.50;99.90;;;;;;4846689;29;20799;-64
2023/03/25 01:52:02;;;;;;;20.10;4.00;;;6.50;99.90;;;;;;4848449;29;20065;-70
2023/03/25 01:54:29;;;;;;;17.63;3.67;;;6.50;99.90;;;;;;4845715;29;20053;-68
2023/03/25 01:56:56;;;;;;;10.43;4.07;;;6.40;99.90;;;;;;4843914;29;20045;-74
2023/03/25 01:59:27;;;;;;;7.18;2.40;;;6.40;99.90;;;;;;4850202;29;20042;-71
2023/03/25 02:01:56;;;;;;;11.93;3.60;;;6.40;99.90;;;;;;4844075;29;20426;-68
2023/03/25 02:05:00;;;;;;;14.02;3.05;;;6.30;99.90;;;;;;4849845;29;20677;-69
2023/03/25 02:07:31;;;;;;;11.88;3.78;;;6.30;99.90;;;;;;4840876;29;20784;-67
2023/03/25 02:10:01;;;;;;;16.83;4.95;;;6.20;99.90;;;;;;4845060;29;20046;-63
2023/03/25 02:12:28;;;;;;;10.77;2.70;;;6.20;99.90;;;;;;4857737;29;20074;-63
2023/03/25 02:14:56;;;;;;;20.70;5.90;;;6.20;99.90;;;;;;4842048;29;20497;-66
2023/03/25 02:17:38;;;;;;;10.85;2.25;;;6.10;99.90;;;;;;4845469;29;20149;-62
2023/03/25 02:20:14;;;;;;;14.60;3.35;;;6.10;99.90;;;;;;4844955;29;20041;-63
2023/03/25 02:22:58;;;;;;;10.70;3.85;;;6.00;99.90;;;;;;4845654;29;20672;-68
2023/03/25 02:25:38;;;;;;;9.63;3.08;;;6.00;99.90;;;;;;4843458;29;20053;-65
2023/03/25 02:28:52;;;;;;;22.02;4.45;;;6.00;99.90;;;;;;4844346;29;20094;-69
2023/03/25 02:31:52;;;;;;;13.95;3.67;;;6.10;99.90;;;;;;4824465;29;20077;-71
2023/03/25 02:34:47;;;;;;;11.63;2.75;;;6.10;99.90;;;;;;4819806;29;20531;-72
2023/03/25 02:37:32;;;;;;;14.52;4.05;;;6.20;99.90;;;;;;4843450;29;20049;-74
2023/03/25 02:40:12;;;;;;;15.63;3.75;;;6.20;99.90;;;;;;4860282;29;20042;-69
2023/03/25 02:43:00;;;;;;;18.17;4.20;;;6.20;99.90;;;;;;4849022;29;20045;-65
2023/03/25 02:45:33;;;;;;;12.60;2.97;;;6.30;99.90;;;;;;4845968;29;20042;-66
2023/03/25 02:48:06;;;;;;;15.73;4.45;;;6.30;99.90;;;;;;4840974;29;20053;-67
2023/03/25 02:50:39;;;;;;;12.70;4.20;;;6.30;99.90;;;;;;4862707;29;20064;-65
2023/03/25 02:53:12;;;;;;;13.55;3.78;;;6.30;99.90;;;;;;4843592;29;20401;-68
2023/03/25 02:55:42;;;;;;;17.80;3.63;;;6.30;99.90;;;;;;4863513;29;20072;-66
2023/03/25 02:58:12;;;;;;;10.90;2.88;;;6.30;99.90;;;;;;4829486;29;20121;-64
2023/03/25 03:00:39;;;;;;;15.65;4.00;;;6.30;99.90;;;;;;4840275;29;20053;-65
2023/03/25 03:03:07;;;;;;;11.43;3.33;;;6.30;99.90;;;;;;4840971;29;20041;-68
2023/03/25 03:05:40;;;;;;;16.15;4.45;;;6.30;99.90;;;;;;4843012;29;20041;-71
2023/03/25 03:08:27;;;;;;;17.02;3.65;;;6.20;99.90;;;;;;4846289;29;20753;-68
2023/03/25 03:11:14;;;;;;;13.60;3.58;;;6.20;99.90;;;;;;4846228;29;20564;-65
2023/03/25 03:14:05;;;;;;;21.60;7.53;;;6.20;99.90;;;;;;4844399;29;20057;-72
2023/03/25 03:16:48;;;;;;;14.45;3.83;;;6.20;99.90;;;;;;4847139;29;20046;-65
2023/03/25 03:19:37;;;;;;;14.18;3.60;;;6.30;99.90;;;;;;4840772;29;20057;-68
2023/03/25 03:22:13;;;;;;;19.60;4.65;;;6.30;99.90;;;;;;4845087;29;20049;-64
2023/03/25 03:25:08;;;;;;;14.52;4.30;;;6.30;99.90;;;;;;4847454;29;20112;-67
2023/03/25 03:27:42;;;;;;;16.30;4.30;;;6.40;99.90;;;;;;4844910;29;20045;-68
2023/03/25 03:30:21;;;;;;;24.15;4.55;;;6.50;99.90;;;;;;4841879;29;20042;-67
2023/03/25 03:32:56;;;;;;;10.13;2.85;;;6.50;99.90;;;;;;4847145;29;20042;-67
2023/03/25 03:35:30;;;;;;;19.73;4.10;;;6.60;99.90;;;;;;4846155;29;20049;-66
2023/03/25 03:38:02;;;;;;;12.45;3.97;;;6.60;99.90;;;;;;4840802;29;20060;-70
2023/03/25 03:40:31;;;;;;;8.82;3.00;;;6.60;99.90;;;;;;4848101;29;20045;-67
2023/03/25 03:43:25;;;;;;;13.10;3.85;;;6.70;99.90;;;;;;4844577;29;20041;-66
2023/03/25 03:45:58;;;;;;;13.75;3.58;;;6.80;99.90;;;;;;4848400;29;20860;-67
2023/03/25 03:48:37;;;;;;;11.88;3.03;;;6.80;99.90;;;;;;4848098;29;20060;-68
2023/03/25 03:51:15;;;;;;;10.75;3.40;;;6.90;99.90;;;;;;4844809;29;20057;-65
2023/03/25 03:54:03;;;;;;;9.20;3.67;;;6.90;99.90;;;;;;4841657;29;20049;-66
2023/03/25 03:56:40;;;;;;;18.02;3.25;;;7.00;99.90;;;;;;4847516;29;20118;-63
2023/03/25 03:59:26;;;;;;;22.48;4.25;;;7.00;99.90;;;;;;4842580;29;20049;-66
2023/03/25 04:02:00;;;;;;;13.48;4.72;;;6.90;99.90;;;;;;4845667;29;20045;-72
2023/03/25 04:04:27;;;;;;;19.48;4.18;;;6.80;99.90;;;;;;4843999;29;20049;-67
2023/03/25 04:07:18;;;;;;;16.20;4.30;;;6.80;99.90;;;;;;4840555;29;20053;-70
2023/03/25 04:10:13;;;;;;;14.05;3.00;;;6.80;99.90;;;;;;4844938;29;20052;-70
2023/03/25 04:12:45;;;;;;;12.48;3.42;;;6.80;99.90;;;;;;4848561;29;20061;-72
2023/03/25 04:15:13;;;;;;;14.05;3.22;;;6.90;99.90;;;;;;4837628;29;20602;-67
2023/03/25 04:17:41;;;;;;;14.00;3.53;;;7.00;99.90;;;;;;4846794;29;20081;-69
2023/03/25 04:20:14;;;;;;;11.25;3.83;;;7.00;99.90;;;;;;4840452;29;20118;-71
2023/03/25 04:22:44;;;;;;;17.45;4.53;;;7.00;99.90;;;;;;4844598;29;20420;-67
2023/03/25 04:25:12;;;;;;;10.18;3.22;;;7.00;99.90;;;;;;4837657;29;20053;-68
2023/03/25 04:27:39;;;;;;;13.77;3.40;;;7.00;99.90;;;;;;4842447;29;20046;-66
2023/03/25 04:30:07;;;;;;;16.67;4.75;;;7.00;99.90;;;;;;4848091;29;20583;-65
2023/03/25 04:32:34;;;;;;;12.43;4.45;;;7.00;99.90;;;;;;4845514;29;20143;-66
2023/03/25 04:35:02;;;;;;;17.70;4.13;;;7.00;99.90;;;;;;4848439;29;20068;-65
2023/03/25 04:37:32;;;;;;;15.10;4.50;;;7.00;99.90;;;;;;4847413;29;20049;-64
2023/03/25 04:39:59;;;;;;;;;;;7.00;99.90;;;;;;4839643;29;20478;-65
2023/03/25 04:42:31;;;;;;;13.88;3.78;;;6.90;99.90;;;;;;4843300;29;19920;-67
2023/03/25 04:44:59;;;;;;;20.70;4.93;;;6.90;99.90;;;;;;4841849;29;20403;-71
2023/03/25 04:47:26;;;;;;;10.10;2.92;;;6.90;99.90;;;;;;4844729;29;20101;-68
2023/03/25 04:49:53;;;;;;;15.50;3.50;;;6.90;99.90;;;;;;4844784;29;20062;-66
2023/03/25 04:52:20;;;;;;;15.77;4.28;;;6.80;99.90;;;;;;4845940;29;20400;-65
2023/03/25 04:54:47;;;;;;;11.57;3.30;;;6.80;99.90;;;;;;4842387;29;20096;-68
2023/03/25 04:57:14;;;;;;;13.38;3.25;;;6.80;99.90;;;;;;4838212;29;20172;-73
2023/03/25 04:59:41;;;;;;;18.48;3.17;;;6.80;99.90;;;;;;4845008;29;20041;-68
2023/03/25 05:02:12;;;;;;;9.15;2.78;;;6.80;99.90;;;;;;4846244;29;20483;-64
2023/03/25 05:04:41;;;;;;;15.90;3.47;;;6.90;99.90;;;;;;4843138;29;20049;-69
2023/03/25 05:07:08;;;;;;;12.60;3.15;;;6.90;99.90;;;;;;4841001;29;20053;-72
2023/03/25 05:09:35;;;;;;;11.52;3.47;;;6.90;99.90;;;;;;4843901;29;20334;-68
2023/03/25 05:12:02;;;;;;;13.52;4.88;;;6.90;99.90;;;;;;4840684;29;20419;-71
2023/03/25 05:14:29;;;;;;;18.65;4.45;;;7.00;99.90;;;;;;4844117;29;20133;-68
2023/03/25 05:16:58;;;;;;;13.13;3.67;;;6.90;99.90;;;;;;4842829;29;20053;-70
2023/03/25 05:19:26;;;;;;;14.25;3.60;;;6.90;99.90;;;;;;4844666;29;20255;-63
2023/03/25 05:21:55;;;;;;;19.23;5.97;;;7.00;99.90;;;;;;4846622;29;20052;-67
2023/03/25 05:24:22;;;;;;;14.98;3.55;;;7.00;99.90;;;;;;4834253;29;20050;-69
2023/03/25 05:26:48;;;;;;;12.63;3.80;;;7.00;99.90;;;;;;4838708;29;20048;-67
2023/03/25 05:29:15;;;;;;;15.07;4.40;;;7.00;99.90;;;;;;4842184;29;20050;-75
2023/03/25 05:31:45;;;;;;;12.80;3.45;;;6.90;99.90;;;;;;4844276;29;20037;-69
2023/03/25 05:34:13;;;;;;;24.98;5.00;;;6.90;99.90;;;;;;4842275;29;20053;-70
2023/03/25 05:36:40;;;;;;;13.52;3.05;;;6.90;99.90;;;;;;4847209;29;20144;-66
2023/03/25 05:39:08;;;;;;;23.90;12.30;;;6.80;99.90;;;;;;4848284;29;20212;-71
2023/03/25 05:41:37;;;;;;;15.15;6.97;;;6.80;99.90;;;;;;4847392;29;20055;-70
2023/03/25 05:44:06;;;;;;;12.32;7.10;;;6.80;99.90;;;;;;4844914;29;20057;-63
2023/03/25 05:46:33;;;;;;;19.63;6.82;;;6.80;99.90;;;;;;4854042;29;20655;-66
2023/03/25 05:49:00;;;;;;;16.23;5.75;;;6.80;99.90;;;;;;4845798;29;20597;-72
2023/03/25 05:51:32;;;;;;;17.48;5.72;;;6.70;99.90;;;;;;4848427;29;20053;-65
2023/03/25 05:54:00;;;;;;;18.17;7.15;;;6.70;99.90;;;;;;4847910;29;20061;-67
2023/03/25 05:56:28;;;;;;;15.25;5.40;;;6.70;99.90;;;;;;4850754;29;20070;-70
2023/03/25 05:58:56;;;;;;;12.18;5.38;;;6.70;99.90;;;;;;4850207;29;20060;-69
2023/03/25 06:01:23;;;;;;;21.20;7.53;;;6.70;99.90;;;;;;4846977;29;20812;-75
2023/03/25 06:04:01;;;;;;;13.90;4.40;;;6.70;99.90;;;;;;4850074;29;20034;-71
2023/03/25 06:06:30;;;;;;;13.77;4.82;;;6.80;99.90;;;;;;4851284;29;20052;-73
2023/03/25 06:08:58;;;;;;;13.63;6.43;;;6.80;99.90;;;;;;4848349;29;20042;-70
2023/03/25 06:11:25;;;;;;;14.07;4.43;;;6.90;99.90;;;;;;4847488;29;20073;-65
2023/03/25 06:13:52;;;;;;;16.00;4.65;;;6.90;99.90;;;;;;4848675;29;20046;-63
2023/03/25 06:16:28;;;;;;;14.88;6.07;;;6.90;99.90;;;;;;4842244;29;20081;-64
2023/03/25 06:18:58;;;;;;;24.92;5.20;;;7.00;99.90;;;;;;4847608;29;20053;-66
2023/03/25 06:21:31;;;;;;;27.58;10.02;;;7.00;99.90;;;;;;4848705;29;20364;-67
2023/03/25 06:24:00;;;;;;;12.75;4.75;;;7.00;99.90;;;;;;4849914;29;20053;-64
2023/03/25 06:26:28;;;;;;;17.73;8.35;;;6.90;99.90;;;;;;4850381;29;20078;-66
2023/03/25 06:28:54;;;;;;;18.85;7.05;;;7.00;99.90;;;;;;4846776;29;20450;-71
2023/03/25 06:31:26;;;;;;;14.98;4.07;;;6.90;99.90;;;;;;4848919;29;20055;-73
2023/03/25 06:33:55;;;;;;;15.52;3.80;;;7.00;99.90;;;;;;4845947;29;20103;-68
2023/03/25 06:36:24;;;;;;;17.38;4.63;;;7.00;99.90;;;;;;4846745;29;20396;-67
2023/03/25 06:38:51;;;;;;;21.05;4.65;;;7.00;99.90;;;;;;4844827;29;20041;-64
2023/03/25 06:41:20;;;;;;;12.07;5.40;;;7.00;99.90;;;;;;4856682;29;20045;-66
2023/03/25 06:43:55;;;;;;;18.17;5.15;;;7.00;99.90;;;;;;4855956;29;20427;-67
2023/03/25 06:46:28;;;;;;;14.40;4.25;;;7.10;99.90;;;;;;4852566;29;20100;-62
2023/03/25 06:49:15;;;;;;;17.38;6.50;;;7.20;99.90;;;;;;4843929;29;20053;-66
2023/03/25 06:51:42;;;;;;;13.95;5.13;;;7.30;99.90;;;;;;4847750;29;20048;-65
2023/03/25 06:54:09;;;;;;;13.23;4.28;;;7.40;99.90;;;;;;4848616;29;20058;-72
2023/03/25 06:56:36;;;;;;;14.50;5.15;;;7.40;99.90;;;;;;4849867;29;20374;-62
2023/03/25 06:59:04;;;;;;;15.90;6.60;;;7.40;99.90;;;;;;4841652;29;20049;-62
2023/03/25 07:01:31;;;;;;;13.15;6.03;;;7.50;99.90;;;;;;4847236;29;20475;-66
2023/03/25 07:03:58;;;;;;;13.20;5.20;;;7.50;99.90;;;;;;4843334;29;20130;-63
2023/03/25 07:06:25;;;;;;;16.65;6.07;;;7.60;99.90;;;;;;4848652;29;20057;-63
2023/03/25 07:08:52;;;;;;;14.73;4.97;;;7.60;99.90;;;;;;4846441;29;20044;-65
2023/03/25 07:11:28;;;;;;;13.48;4.30;;;7.70;99.90;;;;;;4846811;29;20046;-65
2023/03/25 07:13:55;;;;;;;13.10;5.50;;;7.70;99.90;;;;;;4843733;29;20052;-73
2023/03/25 07:16:24;;;;;;;13.55;4.85;;;7.80;99.90;;;;;;4864050;29;20049;-67
2023/03/25 07:18:53;;;;;;;18.20;5.90;;;7.80;99.90;;;;;;4843641;29;20044;-66
2023/03/25 07:21:20;;;;;;;22.20;6.85;;;7.90;99.90;;;;;;4844180;29;20084;-66
2023/03/25 07:23:47;;;;;;;15.70;4.78;;;7.90;99.90;;;;;;4846405;29;20041;-65
2023/03/25 07:26:14;;;;;;;26.30;6.93;;;7.90;99.90;;;;;;4845288;29;20936;-65
2023/03/25 07:28:41;;;;;;;17.95;5.43;;;7.90;99.90;;;;;;4846416;29;20041;-69
2023/03/25 07:31:10;;;;;;;10.30;5.03;;;8.00;99.90;;;;;;4844946;29;20053;-73
2023/03/25 07:33:38;;;;;;;13.45;5.60;;;8.00;99.90;;;;;;4842026;29;20074;-71
2023/03/25 07:36:06;;;;;;;18.60;4.57;;;8.00;99.90;;;;;;4838623;29;20056;-73
2023/03/25 07:38:33;;;;;;;19.38;6.35;;;8.10;99.90;;;;;;4845818;29;20049;-69
2023/03/25 07:41:05;;;;;;;22.80;5.95;;;8.10;99.90;;;;;;4845164;29;20718;-73
2023/03/25 07:43:31;;;;;;;14.98;4.35;;;8.00;99.90;;;;;;4844002;29;20050;-66
2023/03/25 07:46:21;;;;;;;19.95;5.03;;;8.00;99.90;;;;;;4845644;29;20057;-69
2023/03/25 07:48:48;;;;;;;13.48;4.30;;;8.10;99.90;;;;;;4844587;29;20158;-65
2023/03/25 07:51:15;;;;;;;17.05;6.22;;;8.10;99.90;;;;;;4839019;29;20045;-72
2023/03/25 07:53:44;;;;;;;15.65;8.68;;;8.10;99.90;;;;;;4849294;29;20049;-66
2023/03/25 07:56:11;;;;;;;13.00;3.70;;;8.00;99.90;;;;;;4845407;29;20113;-66
2023/03/25 07:58:38;;;;;;;14.68;5.03;;;8.10;99.90;;;;;;4845757;29;20376;-69
2023/03/25 08:01:05;;;;;;;10.93;3.05;;;8.10;99.90;;;;;;4841322;29;20065;-63
2023/03/25 08:03:33;;;;;;;12.45;3.60;;;8.20;99.90;;;;;;4847568;29;20149;-67
2023/03/25 08:06:01;;;;;;;24.75;4.20;;;8.40;99.90;;;;;;4845796;29;20164;-70
2023/03/25 08:08:31;;;;;;;14.90;3.95;;;8.60;99.90;;;;;;4840425;29;20543;-63
2023/03/25 08:10:58;;;;;;;14.57;4.07;;;8.70;99.90;;;;;;4841798;29;20393;-63
2023/03/25 08:13:25;;;;;;;11.35;3.50;;;8.70;99.90;;;;;;4845341;29;20048;-70
2023/03/25 08:15:52;;;;;;;15.23;4.50;;;8.70;99.90;;;;;;4845662;29;20053;-67
2023/03/25 08:18:19;;;;;;;11.90;3.10;;;8.80;99.90;;;;;;4841899;29;20481;-64
2023/03/25 08:20:49;;;;;;;19.00;4.18;;;8.90;99.90;;;;;;4844826;29;20519;-66
2023/03/25 08:23:18;;;;;;;15.52;4.70;;;9.10;99.90;;;;;;4841943;29;20145;-67
2023/03/25 08:25:49;;;;;;;10.40;3.00;;;9.20;99.90;;;;;;4847889;29;20141;-65
2023/03/25 08:28:22;;;;;;;13.95;4.93;;;9.30;99.90;;;;;;4844574;29;20122;-65
2023/03/25 08:30:53;;;;;;;16.52;3.35;;;9.40;99.90;;;;;;4843248;29;20073;-68
2023/03/25 08:33:25;;;;;;;10.73;2.70;;;9.60;99.90;;;;;;4845102;29;20112;-65
2023/03/25 08:35:56;;;;;;;10.40;3.03;;;9.80;99.90;;;;;;4841832;29;20079;-63
2023/03/25 08:38:24;;;;;;;13.05;2.92;;;9.90;99.90;;;;;;4843300;29;20052;-65
2023/03/25 08:40:51;;;;;;;6.13;2.55;;;10.10;99.90;;;;;;4837176;29;20090;-67
2023/03/25 08:43:18;;;;;;;11.30;3.22;;;10.10;99.90;;;;;;4845552;29;20078;-64
2023/03/25 08:45:45;;;;;;;11.80;3.20;;;10.00;99.90;;;;;;4843936;29;20049;-66
2023/03/25 08:48:12;;;;;;;17.83;4.30;;;9.90;99.90;;;;;;4847484;29;20057;-66
2023/03/25 08:50:39;;;;;;;12.27;3.30;;;10.00;99.90;;;;;;4843535;29;20071;-64
2023/03/25 08:53:06;;;;;;;11.65;3.55;;;10.10;99.90;;;;;;4847934;29;20271;-69
2023/03/25 08:55:33;;;;;;;10.85;3.92;;;10.10;99.90;;;;;;4845748;29;20057;-66
2023/03/25 08:58:05;;;;;;;8.40;3.53;;;10.10;99.90;;;;;;4845937;29;20041;-67
2023/03/25 09:00:31;;;;;;;14.50;3.95;;;10.20;99.90;;;;;;4843852;29;20132;-66
2023/03/25 09:02:59;;;;;;;21.45;3.08;;;10.20;99.90;;;;;;4845252;29;20042;-64
2023/03/25 09:05:26;;;;;;;22.17;4.55;;;10.00;99.90;;;;;;4846812;29;20064;-63
2023/03/25 09:07:53;;;;;;;13.05;4.45;;;9.90;99.90;;;;;;4843256;29;20308;-64
2023/03/25 09:10:20;;;;;;;11.85;3.30;;;9.90;99.90;;;;;;4841987;29;20089;-71
2023/03/25 09:12:47;;;;;;;9.68;2.38;;;9.80;99.90;;;;;;4843822;29;20072;-64
2023/03/25 09:15:14;;;;;;;11.77;3.22;;;9.80;99.90;;;;;;4840243;29;20084;-65
2023/03/25 09:17:41;;;;;;;11.93;3.88;;;9.80;99.90;;;;;;4846367;29;20504;-67
2023/03/25 09:20:09;;;;;;;11.63;3.05;;;9.90;99.90;;;;;;4847569;29;20139;-65
2023/03/25 09:22:38;;;;;;;7.55;3.00;;;9.90;99.90;;;;;;4849534;29;20449;-67
2023/03/25 09:25:06;;;;;;;15.70;3.40;;;10.00;99.90;;;;;;4844845;29;20049;-66
2023/03/25 09:27:33;;;;;;;14.55;3.05;;;10.10;99.90;;;;;;4843390;29;20064;-65
2023/03/25 09:30:00;;;;;;;9.05;3.17;;;10.20;99.90;;;;;;4847664;29;20148;-64
2023/03/25 09:32:28;;;;;;;16.58;3.55;;;10.30;99.90;;;;;;4847941;29;20107;-66
2023/03/25 09:34:55;;;;;;;14.23;4.65;;;10.40;99.90;;;;;;4844580;29;20054;-70
2023/03/25 09:37:22;;;;;;;16.10;3.38;;;10.30;99.90;;;;;;4846076;29;20152;-63
2023/03/25 09:39:49;;;;;;;10.40;4.00;;;10.40;99.90;;;;;;4846482;29;20060;-70
2023/03/25 09:42:45;;;;;;;10.75;3.75;;;10.40;99.90;;;;;;4849504;29;20045;-73
2023/03/25 09:45:34;;;;;;;17.65;2.75;;;10.20;99.90;;;;;;4841838;29;20044;-67
2023/03/25 09:48:21;;;;;;;20.65;4.40;;;10.20;99.90;;;;;;4846096;29;20056;-66
2023/03/25 09:50:48;;;;;;;8.88;3.60;;;10.10;99.90;;;;;;4846421;29;20052;-70
2023/03/25 09:53:27;;;;;;;13.02;3.50;;;9.90;99.90;;;;;;4848073;29;20050;-67
2023/03/25 09:55:54;;;;;;;16.92;4.32;;;9.90;99.90;;;;;;4849875;29;20399;-63
2023/03/25 09:58:45;;;;;;;12.18;3.22;;;9.90;99.90;;;;;;4849944;29;20050;-64
2023/03/25 10:01:31;;;;;;;;;;;10.00;99.90;;;;;;4847132;29;20068;-69
2023/03/25 10:04:27;;;;;;;12.68;2.95;;;10.00;99.90;;;;;;4847759;29;19940;-66
2023/03/25 10:07:22;;;;;;;11.00;4.13;;;9.90;99.90;;;;;;4852218;29;20482;-67
2023/03/25 10:10:11;;;;;;;17.20;3.45;;;9.90;99.90;;;;;;4846033;29;20148;-67
2023/03/25 10:12:57;;;;;;;12.32;3.40;;;9.90;99.90;;;;;;4852990;29;20058;-65
2023/03/25 10:15:38;;;;;;;13.32;3.65;;;10.00;99.90;;;;;;4842896;29;20063;-66
2023/03/25 10:18:08;;;;;;;10.65;2.90;;;10.00;99.90;;;;;;4846755;29;20108;-68
2023/03/25 10:20:53;;;;;;;13.55;2.75;;;10.10;99.90;;;;;;4848702;29;20462;-67
2023/03/25 10:23:33;;;;;;;11.02;3.22;;;10.20;99.90;;;;;;4841592;29;20098;-69
2023/03/25 10:26:23;;;;;;;15.32;3.47;;;10.30;99.90;;;;;;4846312;29;20515;-71
2023/03/25 10:28:56;;;;;;;11.57;3.30;;;10.50;99.90;;;;;;4840991;29;20055;-69
2023/03/25 10:31:27;;;;;;;13.40;3.00;;;10.60;99.90;;;;;;4845297;29;20115;-69
2023/03/25 10:33:57;;;;;;;18.73;3.50;;;10.80;99.90;;;;;;4845521;29;20077;-62
2023/03/25 10:36:33;;;;;;;16.65;3.38;;;10.60;99.90;;;;;;4850073;29;20404;-69
2023/03/25 10:39:03;;;;;;;13.90;3.15;;;10.50;99.90;;;;;;4844555;29;20049;-63
2023/03/25 10:41:36;;;;;;;11.88;3.80;;;10.40;99.90;;;;;;4846409;29;20058;-63
2023/03/25 10:44:09;;;;;;;8.18;2.78;;;10.30;99.90;;;;;;4843267;29;20060;-67
2023/03/25 10:46:53;;;;;;;13.73;4.03;;;10.30;99.90;;;;;;4851085;29;20049;-73
2023/03/25 10:49:23;;;;;;;16.45;4.10;;;10.30;99.90;;;;;;4846567;29;20064;-63
2023/03/25 10:51:56;;;;;;;16.43;3.97;;;10.30;99.90;;;;;;4850525;29;20049;-65
2023/03/25 10:54:27;;;;;;;12.90;3.80;;;10.20;99.90;;;;;;4849730;29;20277;-70
2023/03/25 10:56:57;;;;;;;18.67;4.10;;;10.20;99.90;;;;;;4846122;29;20061;-68
2023/03/25 10:59:42;;;;;;;22.10;4.03;;;10.20;99.90;;;;;;4846208;29;20080;-63
2023/03/25 11:02:17;;;;;;;17.27;4.18;;;10.10;99.90;;;;;;4850815;29;20145;-63
2023/03/25 11:04:48;;;;;;;17.38;5.97;;;10.00;99.90;;;;;;4840044;29;20064;-71
2023/03/25 11:07:25;;;;;;;12.30;5.03;;;10.10;99.90;;;;;;4847034;29;20059;-70
2023/03/25 11:09:52;;;;;;;14.27;3.75;;;10.00;99.90;;;;;;4847423;29;20105;-67
2023/03/25 11:12:21;;;;;;;15.98;4.32;;;9.80;99.90;;;;;;4851232;29;20148;-65
2023/03/25 11:15:17;;;;;;;15.85;4.30;;;10.00;99.90;;;;;;4844398;29;20097;-62
2023/03/25 11:17:46;;;;;;;21.13;4.25;;;10.20;99.90;;;;;;4846292;29;20050;-65
2023/03/25 11:20:20;;;;;;;20.00;4.47;;;10.40;99.90;;;;;;4843306;29;20053;-63
2023/03/25 11:22:51;;;;;;;24.25;5.43;;;10.50;99.90;;;;;;4845930;29;20060;-64
2023/03/25 11:25:24;;;;;;;16.88;6.32;;;10.50;99.90;;;;;;4847044;29;20045;-70
2023/03/25 11:28:38;;;;;;;12.25;5.35;;;10.60;99.90;;;;;;4850436;29;20073;-72
2023/03/25 11:31:19;;;;;;;15.63;5.30;;;10.70;99.90;;;;;;4821979;29;20911;-65
2023/03/25 11:34:10;;;;;;;10.77;5.22;;;10.70;99.90;;;;;;4821011;29;20046;-65
2023/03/25 11:36:46;;;;;;;16.85;5.18;;;10.60;99.90;;;;;;4828384;29;22507;-64
2023/03/25 11:39:22;;;;;;;15.25;6.70;;;10.60;99.90;;;;;;4847349;29;20762;-67
2023/03/25 11:41:50;;;;;;;16.77;6.82;;;10.40;99.90;;;;;;4850852;29;20038;-66
2023/03/25 11:44:38;;;;;;;12.63;5.88;;;10.30;99.90;;;;;;4844248;29;20087;-66
2023/03/25 11:47:08;;;;;;;18.83;5.75;;;10.20;99.90;;;;;;4846512;29;20061;-69
2023/03/25 11:49:37;;;;;;;12.15;5.38;;;10.10;99.90;;;;;;4849289;29;20045;-68
2023/03/25 11:52:16;;;;;;;15.70;7.20;;;10.10;99.90;;;;;;4845825;29;20049;-70
2023/03/25 11:54:44;;;;;;;18.10;6.53;;;9.80;99.90;;;;;;4848767;29;20725;-69
2023/03/25 11:57:21;;;;;;;18.27;6.53;;;9.70;99.90;;;;;;4845050;29;20132;-64
2023/03/25 11:59:56;;;;;;;14.13;6.00;;;9.60;99.90;;;;;;4846072;29;20137;-67
2023/03/25 12:02:30;;;;;;;12.40;5.28;;;9.50;99.90;;;;;;4848424;29;20488;-66
2023/03/25 12:05:01;;;;;;;22.20;6.85;;;9.50;99.90;;;;;;4844210;29;20041;-63
2023/03/25 12:07:39;;;;;;;11.45;8.02;;;9.70;99.90;;;;;;4840867;29;20959;-68
2023/03/25 12:10:14;;;;;;;13.05;8.23;;;9.60;99.90;;;;;;4847358;29;20053;-69
2023/03/25 12:12:48;;;;;;;14.50;6.38;;;9.70;99.90;;;;;;4841087;29;20061;-64
2023/03/25 12:15:48;;;;;;;18.88;8.07;;;9.90;99.90;;;;;;4842203;29;20145;-67
2023/03/25 12:18:25;;;;;;;25.45;11.85;;;9.90;99.90;;;;;;4820136;29;20141;-66
2023/03/25 12:21:12;;;;;;;14.80;6.90;;;9.90;99.90;;;;;;4837489;29;20054;-63
2023/03/25 12:24:07;;;;;;;14.13;7.68;;;9.80;99.90;;;;;;4842611;29;20077;-67
2023/03/25 12:27:03;;;;;;;19.83;8.45;;;9.90;99.90;;;;;;4840309;29;20467;-66
2023/03/25 12:29:40;;;;;;;26.20;7.45;;;10.10;99.90;;;;;;4840935;29;20202;-67
2023/03/25 12:32:28;;;;;;;13.10;6.40;;;10.20;99.90;;;;;;4844370;29;20038;-63
2023/03/25 12:35:22;;;;;;;12.43;5.70;;;10.30;99.90;;;;;;4842802;29;20234;-68
2023/03/25 12:38:25;;;;;;;12.13;7.50;;;10.30;99.90;;;;;;4839361;29;20122;-65
2023/03/25 12:41:01;;;;;;;12.88;6.35;;;10.40;99.90;;;;;;4840676;29;20076;-63
2023/03/25 12:43:45;;;;;;;21.40;8.35;;;10.30;99.90;;;;;;4842676;29;20073;-68
2023/03/25 12:46:40;;;;;;;14.45;6.97;;;10.20;99.90;;;;;;4843092;29;20734;-67
2023/03/25 12:49:42;;;;;;;15.90;7.47;;;10.20;99.90;;;;;;4844390;29;20336;-63
2023/03/25 12:52:15;;;;;;;14.73;6.45;;;10.20;99.90;;;;;;4847373;29;20077;-66
2023/03/25 12:54:48;;;;;;;16.92;6.07;;;10.00;99.90;;;;;;4845843;29;20050;-67
2023/03/25 12:57:59;;;;;;;15.05;6.38;;;10.10;99.90;;;;;;4847455;29;20050;-68
2023/03/25 13:00:59;;;;;;;9.98;5.20;;;10.30;99.90;;;;;;4849512;29;20056;-72
2023/03/25 13:03:43;;;;;;;18.85;7.88;;;10.50;99.90;;;;;;4845689;29;20056;-62
2023/03/25 13:06:22;;;;;;;14.88;6.50;;;10.60;99.90;;;;;;4849868;29;20132;-63
2023/03/25 13:09:03;;;;;;;14.55;5.72;;;10.80;99.90;;;;;;4844605;29;20049;-65
2023/03/25 13:12:11;;;;;;;11.98;6.82;;;10.80;99.90;;;;;;4844125;29;20045;-64
2023/03/25 13:14:44;;;;;;;8.85;6.03;;;10.70;99.90;;;;;;4809394;29;20046;-66
2023/03/25 13:17:28;;;;;;;25.63;9.30;;;10.70;99.90;;;;;;4846041;29;20045;-71